Portada
METAR-TAF:

METAR-TAF

Aeroports :

Shenzhen, Xina

latitud: 22-33N, longitud: 114-06E, altitud: 18 m

Observació

L'informe es va fer fa 46 minuts, a les 03:00 UTC
Vent 12 kt del Oest/Nord-Oest
Temperatura 27°C
Humitat 62%
Pressió 1016 hPa
Visibilitat: 6000 m

METAR: ZGSZ 180300Z 30006MPS 6000 NSC 27/19 Q1016 NOSIG

Hora: 11:46 (03:46 UTC)

Pronòstic

L'informe es va fer fa 8 hores i 31 minuts, a les 19:15 UTC
Pronòstic vàlid del 18 a les 00 UTC al 18 a les 24 UTC
Vent 12 kt del Nord/Nord-Est
Visibilitat: 6000 m
Núvols disperses a una alçada de 4000 ft

TAF: ZGSZ 171915Z 1800/1824 02006MPS 6000 SCT040 TX26/1806Z TN16/1822Z

Observacions i pronòstics meteorològics de més de 4000 aeroports (METAR i TAF).

Les estacions disponibles són els punts grocs i vermells al mapa.

Posi el ratolí al punt desitjat per veure el nom de l'estació.

Feu clic per veure les observacions i els pronòstics meteorològics.

Per canviar el mapa: feu clic els botons verds amb una creu de color negre per apropar; al botó verd amb un guió per allunyar la imatge; o en les fletxes verdes per a mapes adjacents.


METAR-TAF: